sensor_id;sensor_type;location;lat;lon;timestamp;P1;durP1;ratioP1;P2;durP2;ratioP2
78778;SDS011;68121;52.404;5.318;2023-05-07T00:00:11;15.13;;;11.05;;
78778;SDS011;68121;52.404;5.318;2023-05-07T00:02:37;16.27;;;11.70;;
78778;SDS011;68121;52.404;5.318;2023-05-07T00:05:03;14.80;;;11.40;;
78778;SDS011;68121;52.404;5.318;2023-05-07T00:07:30;16.95;;;10.10;;
78778;SDS011;68121;52.404;5.318;2023-05-07T00:09:56;12.57;;;9.88;;
78778;SDS011;68121;52.404;5.318;2023-05-07T00:12:22;14.30;;;10.02;;
78778;SDS011;68121;52.404;5.318;2023-05-07T00:14:48;12.80;;;9.73;;
78778;SDS011;68121;52.404;5.318;2023-05-07T00:17:14;12.43;;;10.00;;
78778;SDS011;68121;52.404;5.318;2023-05-07T00:19:40;12.43;;;10.10;;
78778;SDS011;68121;52.404;5.318;2023-05-07T00:22:07;12.63;;;9.27;;
78778;SDS011;68121;52.404;5.318;2023-05-07T00:24:33;12.98;;;9.40;;
78778;SDS011;68121;52.404;5.318;2023-05-07T00:26:59;10.50;;;8.40;;
78778;SDS011;68121;52.404;5.318;2023-05-07T00:29:25;12.52;;;8.40;;
78778;SDS011;68121;52.404;5.318;2023-05-07T00:31:51;12.10;;;9.23;;
78778;SDS011;68121;52.404;5.318;2023-05-07T00:34:20;9.52;;;8.05;;
78778;SDS011;68121;52.404;5.318;2023-05-07T00:36:46;10.45;;;7.55;;
78778;SDS011;68121;52.404;5.318;2023-05-07T00:39:12;10.32;;;7.50;;
78778;SDS011;68121;52.404;5.318;2023-05-07T00:41:38;8.90;;;7.45;;
78778;SDS011;68121;52.404;5.318;2023-05-07T00:44:04;9.63;;;7.13;;
78778;SDS011;68121;52.404;5.318;2023-05-07T00:46:30;9.90;;;6.95;;
78778;SDS011;68121;52.404;5.318;2023-05-07T00:48:57;10.70;;;7.00;;
78778;SDS011;68121;52.404;5.318;2023-05-07T00:51:23;7.93;;;7.13;;
78778;SDS011;68121;52.404;5.318;2023-05-07T00:53:50;9.90;;;6.47;;
78778;SDS011;68121;52.404;5.318;2023-05-07T00:56:16;8.45;;;6.32;;
78778;SDS011;68121;52.404;5.318;2023-05-07T00:58:42;9.52;;;6.70;;
78778;SDS011;68121;52.404;5.318;2023-05-07T01:01:08;11.88;;;7.55;;
78778;SDS011;68121;52.404;5.318;2023-05-07T01:03:35;9.77;;;6.88;;
78778;SDS011;68121;52.404;5.318;2023-05-07T01:06:01;10.20;;;7.15;;
78778;SDS011;68121;52.404;5.318;2023-05-07T01:08:28;11.45;;;7.50;;
78778;SDS011;68121;52.404;5.318;2023-05-07T01:10:55;9.05;;;7.10;;
78778;SDS011;68121;52.404;5.318;2023-05-07T01:13:22;9.32;;;7.13;;
78778;SDS011;68121;52.404;5.318;2023-05-07T01:15:49;9.48;;;7.55;;
78778;SDS011;68121;52.404;5.318;2023-05-07T01:18:15;8.40;;;7.30;;
78778;SDS011;68121;52.404;5.318;2023-05-07T01:20:42;8.80;;;7.35;;
78778;SDS011;68121;52.404;5.318;2023-05-07T01:23:08;8.50;;;6.55;;
78778;SDS011;68121;52.404;5.318;2023-05-07T01:25:36;11.23;;;7.30;;
78778;SDS011;68121;52.404;5.318;2023-05-07T01:28:02;7.63;;;6.68;;
78778;SDS011;68121;52.404;5.318;2023-05-07T01:30:28;7.93;;;7.13;;
78778;SDS011;68121;52.404;5.318;2023-05-07T01:35:34;9.45;;;7.65;;
78778;SDS011;68121;52.404;5.318;2023-05-07T01:38:04;7.47;;;6.45;;
78778;SDS011;68121;52.404;5.318;2023-05-07T01:40:31;8.13;;;6.60;;
78778;SDS011;68121;52.404;5.318;2023-05-07T01:42:57;11.75;;;7.43;;
78778;SDS011;68121;52.404;5.318;2023-05-07T01:45:24;7.90;;;6.57;;
78778;SDS011;68121;52.404;5.318;2023-05-07T01:47:51;9.57;;;7.22;;
78778;SDS011;68121;52.404;5.318;2023-05-07T01:50:18;8.60;;;6.38;;
78778;SDS011;68121;52.404;5.318;2023-05-07T01:52:45;10.52;;;8.00;;
78778;SDS011;68121;52.404;5.318;2023-05-07T01:55:12;10.82;;;7.38;;
78778;SDS011;68121;52.404;5.318;2023-05-07T01:57:39;9.13;;;6.95;;
78778;SDS011;68121;52.404;5.318;2023-05-07T02:00:05;11.05;;;7.13;;
78778;SDS011;68121;52.404;5.318;2023-05-07T02:02:32;10.63;;;6.68;;
78778;SDS011;68121;52.404;5.318;2023-05-07T02:04:58;10.07;;;7.00;;
78778;SDS011;68121;52.404;5.318;2023-05-07T02:07:25;7.72;;;6.63;;
78778;SDS011;68121;52.404;5.318;2023-05-07T02:09:51;10.68;;;7.28;;
78778;SDS011;68121;52.404;5.318;2023-05-07T02:12:17;10.25;;;7.28;;
78778;SDS011;68121;52.404;5.318;2023-05-07T02:14:43;9.38;;;7.32;;
78778;SDS011;68121;52.404;5.318;2023-05-07T02:17:09;9.40;;;6.80;;
78778;SDS011;68121;52.404;5.318;2023-05-07T02:19:35;8.35;;;6.85;;
78778;SDS011;68121;52.404;5.318;2023-05-07T02:22:01;8.60;;;6.97;;
78778;SDS011;68121;52.404;5.318;2023-05-07T02:24:27;7.95;;;6.15;;
78778;SDS011;68121;52.404;5.318;2023-05-07T02:26:53;9.65;;;7.20;;
78778;SDS011;68121;52.404;5.318;2023-05-07T02:29:20;6.50;;;5.85;;
78778;SDS011;68121;52.404;5.318;2023-05-07T02:31:46;7.80;;;5.95;;
78778;SDS011;68121;52.404;5.318;2023-05-07T02:34:16;9.32;;;6.70;;
78778;SDS011;68121;52.404;5.318;2023-05-07T02:36:42;8.43;;;7.03;;
78778;SDS011;68121;52.404;5.318;2023-05-07T02:39:08;8.40;;;6.75;;
78778;SDS011;68121;52.404;5.318;2023-05-07T02:41:34;8.00;;;6.88;;
78778;SDS011;68121;52.404;5.318;2023-05-07T02:44:01;7.20;;;6.45;;
78778;SDS011;68121;52.404;5.318;2023-05-07T02:46:27;9.07;;;6.20;;
78778;SDS011;68121;52.404;5.318;2023-05-07T02:48:53;9.65;;;6.78;;
78778;SDS011;68121;52.404;5.318;2023-05-07T02:51:19;11.48;;;6.72;;
78778;SDS011;68121;52.404;5.318;2023-05-07T02:53:47;9.63;;;7.15;;
78778;SDS011;68121;52.404;5.318;2023-05-07T02:56:13;7.88;;;6.88;;
78778;SDS011;68121;52.404;5.318;2023-05-07T02:58:39;10.80;;;7.40;;
78778;SDS011;68121;52.404;5.318;2023-05-07T03:01:05;8.27;;;6.00;;
78778;SDS011;68121;52.404;5.318;2023-05-07T03:03:31;8.77;;;6.63;;
78778;SDS011;68121;52.404;5.318;2023-05-07T03:05:57;8.32;;;7.07;;
78778;SDS011;68121;52.404;5.318;2023-05-07T03:08:24;11.80;;;6.68;;
78778;SDS011;68121;52.404;5.318;2023-05-07T03:10:50;10.32;;;7.18;;
78778;SDS011;68121;52.404;5.318;2023-05-07T03:13:16;8.30;;;7.43;;
78778;SDS011;68121;52.404;5.318;2023-05-07T03:15:43;8.75;;;6.93;;
78778;SDS011;68121;52.404;5.318;2023-05-07T03:18:09;9.82;;;6.95;;
78778;SDS011;68121;52.404;5.318;2023-05-07T03:20:35;8.90;;;6.75;;
78778;SDS011;68121;52.404;5.318;2023-05-07T03:23:02;10.40;;;7.32;;
78778;SDS011;68121;52.404;5.318;2023-05-07T03:25:28;8.27;;;6.53;;
78778;SDS011;68121;52.404;5.318;2023-05-07T03:27:55;9.18;;;7.25;;
78778;SDS011;68121;52.404;5.318;2023-05-07T03:30:22;8.15;;;7.28;;
78778;SDS011;68121;52.404;5.318;2023-05-07T03:32:48;9.68;;;6.13;;
78778;SDS011;68121;52.404;5.318;2023-05-07T03:35:14;8.07;;;6.90;;
78778;SDS011;68121;52.404;5.318;2023-05-07T03:37:40;7.93;;;7.13;;
78778;SDS011;68121;52.404;5.318;2023-05-07T03:40:06;8.30;;;6.72;;
78778;SDS011;68121;52.404;5.318;2023-05-07T03:42:33;8.75;;;7.00;;
78778;SDS011;68121;52.404;5.318;2023-05-07T03:44:59;7.85;;;6.78;;
78778;SDS011;68121;52.404;5.318;2023-05-07T03:47:25;9.73;;;7.43;;
78778;SDS011;68121;52.404;5.318;2023-05-07T03:49:51;10.15;;;7.50;;
78778;SDS011;68121;52.404;5.318;2023-05-07T03:52:19;11.35;;;8.10;;
78778;SDS011;68121;52.404;5.318;2023-05-07T03:54:49;8.68;;;7.10;;
78778;SDS011;68121;52.404;5.318;2023-05-07T03:57:15;11.25;;;8.20;;
78778;SDS011;68121;52.404;5.318;2023-05-07T03:59:41;9.50;;;6.88;;
78778;SDS011;68121;52.404;5.318;2023-05-07T04:02:07;9.70;;;7.28;;
78778;SDS011;68121;52.404;5.318;2023-05-07T04:04:33;10.13;;;7.60;;
78778;SDS011;68121;52.404;5.318;2023-05-07T04:06:59;10.82;;;7.78;;
78778;SDS011;68121;52.404;5.318;2023-05-07T04:09:26;10.35;;;7.55;;
78778;SDS011;68121;52.404;5.318;2023-05-07T04:11:52;11.02;;;7.90;;
78778;SDS011;68121;52.404;5.318;2023-05-07T04:14:18;12.20;;;7.60;;
78778;SDS011;68121;52.404;5.318;2023-05-07T04:16:44;11.93;;;7.03;;
78778;SDS011;68121;52.404;5.318;2023-05-07T04:19:10;11.23;;;8.30;;
78778;SDS011;68121;52.404;5.318;2023-05-07T04:21:36;10.65;;;7.53;;
78778;SDS011;68121;52.404;5.318;2023-05-07T04:24:02;10.75;;;7.88;;
78778;SDS011;68121;52.404;5.318;2023-05-07T04:26:29;10.57;;;7.95;;
78778;SDS011;68121;52.404;5.318;2023-05-07T04:28:55;10.48;;;8.02;;
78778;SDS011;68121;52.404;5.318;2023-05-07T04:31:23;11.45;;;8.77;;
78778;SDS011;68121;52.404;5.318;2023-05-07T04:33:49;13.60;;;9.18;;
78778;SDS011;68121;52.404;5.318;2023-05-07T04:36:17;12.13;;;8.25;;
78778;SDS011;68121;52.404;5.318;2023-05-07T04:38:43;13.93;;;9.80;;
78778;SDS011;68121;52.404;5.318;2023-05-07T04:41:09;12.95;;;8.73;;
78778;SDS011;68121;52.404;5.318;2023-05-07T04:43:35;14.98;;;10.23;;
78778;SDS011;68121;52.404;5.318;2023-05-07T04:46:01;13.48;;;9.10;;
78778;SDS011;68121;52.404;5.318;2023-05-07T04:48:27;12.00;;;9.25;;
78778;SDS011;68121;52.404;5.318;2023-05-07T04:50:54;13.30;;;10.30;;
78778;SDS011;68121;52.404;5.318;2023-05-07T04:53:20;13.02;;;9.50;;
78778;SDS011;68121;52.404;5.318;2023-05-07T04:55:47;13.68;;;9.75;;
78778;SDS011;68121;52.404;5.318;2023-05-07T04:58:13;15.80;;;10.27;;
78778;SDS011;68121;52.404;5.318;2023-05-07T05:00:39;14.75;;;10.70;;
78778;SDS011;68121;52.404;5.318;2023-05-07T05:03:08;12.63;;;11.00;;
78778;SDS011;68121;52.404;5.318;2023-05-07T05:05:34;14.63;;;10.93;;
78778;SDS011;68121;52.404;5.318;2023-05-07T05:08:00;18.20;;;11.50;;
78778;SDS011;68121;52.404;5.318;2023-05-07T05:10:26;16.95;;;12.20;;
78778;SDS011;68121;52.404;5.318;2023-05-07T05:12:52;21.45;;;12.80;;
78778;SDS011;68121;52.404;5.318;2023-05-07T05:15:18;18.35;;;12.93;;
78778;SDS011;68121;52.404;5.318;2023-05-07T05:17:45;18.23;;;13.48;;
78778;SDS011;68121;52.404;5.318;2023-05-07T05:20:11;20.80;;;14.93;;
78778;SDS011;68121;52.404;5.318;2023-05-07T05:22:37;22.10;;;14.73;;
78778;SDS011;68121;52.404;5.318;2023-05-07T05:25:04;24.77;;;15.82;;
78778;SDS011;68121;52.404;5.318;2023-05-07T05:27:30;21.15;;;16.13;;
78778;SDS011;68121;52.404;5.318;2023-05-07T05:29:56;22.30;;;16.33;;
78778;SDS011;68121;52.404;5.318;2023-05-07T05:32:22;22.30;;;15.38;;
78778;SDS011;68121;52.404;5.318;2023-05-07T05:34:48;21.98;;;16.23;;
78778;SDS011;68121;52.404;5.318;2023-05-07T05:37:14;22.65;;;16.30;;
78778;SDS011;68121;52.404;5.318;2023-05-07T05:39:40;23.70;;;16.77;;
78778;SDS011;68121;52.404;5.318;2023-05-07T05:42:07;25.65;;;17.80;;
78778;SDS011;68121;52.404;5.318;2023-05-07T05:44:33;25.88;;;17.92;;
78778;SDS011;68121;52.404;5.318;2023-05-07T05:47:00;26.13;;;18.55;;
78778;SDS011;68121;52.404;5.318;2023-05-07T05:49:26;24.33;;;16.50;;
78778;SDS011;68121;52.404;5.318;2023-05-07T05:51:52;28.48;;;17.73;;
78778;SDS011;68121;52.404;5.318;2023-05-07T05:54:18;26.92;;;17.33;;
78778;SDS011;68121;52.404;5.318;2023-05-07T05:56:44;25.85;;;18.02;;
78778;SDS011;68121;52.404;5.318;2023-05-07T05:59:11;28.23;;;17.67;;
78778;SDS011;68121;52.404;5.318;2023-05-07T06:01:37;28.92;;;17.90;;
78778;SDS011;68121;52.404;5.318;2023-05-07T06:04:03;26.55;;;18.27;;
78778;SDS011;68121;52.404;5.318;2023-05-07T06:06:29;24.20;;;16.92;;
78778;SDS011;68121;52.404;5.318;2023-05-07T06:08:57;26.38;;;19.02;;
78778;SDS011;68121;52.404;5.318;2023-05-07T06:11:23;25.95;;;18.75;;
78778;SDS011;68121;52.404;5.318;2023-05-07T06:13:49;28.90;;;19.35;;
78778;SDS011;68121;52.404;5.318;2023-05-07T06:16:15;26.58;;;18.42;;
78778;SDS011;68121;52.404;5.318;2023-05-07T06:18:41;25.55;;;18.90;;
78778;SDS011;68121;52.404;5.318;2023-05-07T06:21:07;24.05;;;18.00;;
78778;SDS011;68121;52.404;5.318;2023-05-07T06:23:33;26.65;;;17.75;;
78778;SDS011;68121;52.404;5.318;2023-05-07T06:25:59;23.83;;;17.73;;
78778;SDS011;68121;52.404;5.318;2023-05-07T06:28:25;24.92;;;17.90;;
78778;SDS011;68121;52.404;5.318;2023-05-07T06:30:51;26.67;;;18.65;;
78778;SDS011;68121;52.404;5.318;2023-05-07T06:33:17;27.50;;;18.77;;
78778;SDS011;68121;52.404;5.318;2023-05-07T06:35:45;26.08;;;18.27;;
78778;SDS011;68121;52.404;5.318;2023-05-07T06:38:11;27.70;;;19.20;;
78778;SDS011;68121;52.404;5.318;2023-05-07T06:40:37;24.90;;;17.88;;
78778;SDS011;68121;52.404;5.318;2023-05-07T06:43:03;25.10;;;17.30;;
78778;SDS011;68121;52.404;5.318;2023-05-07T06:45:29;25.67;;;18.00;;
78778;SDS011;68121;52.404;5.318;2023-05-07T06:47:55;27.15;;;18.52;;
78778;SDS011;68121;52.404;5.318;2023-05-07T06:50:22;23.50;;;18.40;;
78778;SDS011;68121;52.404;5.318;2023-05-07T06:52:48;25.38;;;18.45;;
78778;SDS011;68121;52.404;5.318;2023-05-07T06:55:14;24.73;;;17.77;;
78778;SDS011;68121;52.404;5.318;2023-05-07T06:57:40;27.95;;;17.45;;
78778;SDS011;68121;52.404;5.318;2023-05-07T07:00:06;25.83;;;16.65;;
78778;SDS011;68121;52.404;5.318;2023-05-07T07:02:34;25.45;;;16.45;;
78778;SDS011;68121;52.404;5.318;2023-05-07T07:05:00;25.10;;;16.60;;
78778;SDS011;68121;52.404;5.318;2023-05-07T07:07:26;24.27;;;16.38;;
78778;SDS011;68121;52.404;5.318;2023-05-07T07:09:52;29.17;;;18.30;;
78778;SDS011;68121;52.404;5.318;2023-05-07T07:12:20;24.40;;;15.38;;
78778;SDS011;68121;52.404;5.318;2023-05-07T07:14:48;24.33;;;16.85;;
78778;SDS011;68121;52.404;5.318;2023-05-07T07:17:14;25.90;;;17.75;;
78778;SDS011;68121;52.404;5.318;2023-05-07T07:19:40;25.10;;;17.63;;
78778;SDS011;68121;52.404;5.318;2023-05-07T07:22:06;25.38;;;16.33;;
78778;SDS011;68121;52.404;5.318;2023-05-07T07:24:32;26.10;;;17.60;;
78778;SDS011;68121;52.404;5.318;2023-05-07T07:26:58;23.70;;;16.88;;
78778;SDS011;68121;52.404;5.318;2023-05-07T07:29:24;23.50;;;15.55;;
78778;SDS011;68121;52.404;5.318;2023-05-07T07:31:52;21.95;;;15.85;;
78778;SDS011;68121;52.404;5.318;2023-05-07T07:34:18;18.83;;;13.32;;
78778;SDS011;68121;52.404;5.318;2023-05-07T07:36:44;23.95;;;16.85;;
78778;SDS011;68121;52.404;5.318;2023-05-07T07:39:10;24.60;;;16.60;;
78778;SDS011;68121;52.404;5.318;2023-05-07T07:41:36;22.13;;;16.17;;
78778;SDS011;68121;52.404;5.318;2023-05-07T07:44:03;21.38;;;15.75;;
78778;SDS011;68121;52.404;5.318;2023-05-07T07:46:32;20.95;;;15.63;;
78778;SDS011;68121;52.404;5.318;2023-05-07T07:48:58;26.40;;;16.40;;
78778;SDS011;68121;52.404;5.318;2023-05-07T07:51:25;20.67;;;15.23;;
78778;SDS011;68121;52.404;5.318;2023-05-07T07:53:52;23.38;;;14.65;;
78778;SDS011;68121;52.404;5.318;2023-05-07T07:56:18;19.70;;;15.38;;
78778;SDS011;68121;52.404;5.318;2023-05-07T07:58:44;26.73;;;15.10;;
78778;SDS011;68121;52.404;5.318;2023-05-07T08:01:10;21.55;;;15.40;;
78778;SDS011;68121;52.404;5.318;2023-05-07T08:03:38;23.02;;;16.13;;
78778;SDS011;68121;52.404;5.318;2023-05-07T08:06:04;19.55;;;14.40;;
78778;SDS011;68121;52.404;5.318;2023-05-07T08:08:30;23.23;;;15.27;;
78778;SDS011;68121;52.404;5.318;2023-05-07T08:10:56;20.52;;;14.95;;
78778;SDS011;68121;52.404;5.318;2023-05-07T08:13:22;22.25;;;16.27;;
78778;SDS011;68121;52.404;5.318;2023-05-07T08:15:48;21.88;;;15.40;;
78778;SDS011;68121;52.404;5.318;2023-05-07T08:18:14;19.67;;;14.68;;
78778;SDS011;68121;52.404;5.318;2023-05-07T08:20:40;19.25;;;14.85;;
78778;SDS011;68121;52.404;5.318;2023-05-07T08:23:06;20.05;;;14.55;;
78778;SDS011;68121;52.404;5.318;2023-05-07T08:25:33;21.58;;;15.02;;
78778;SDS011;68121;52.404;5.318;2023-05-07T08:28:00;18.95;;;14.05;;
78778;SDS011;68121;52.404;5.318;2023-05-07T08:30:26;22.35;;;14.60;;
78778;SDS011;68121;52.404;5.318;2023-05-07T08:32:52;21.45;;;15.38;;
78778;SDS011;68121;52.404;5.318;2023-05-07T08:35:18;22.35;;;15.18;;
78778;SDS011;68121;52.404;5.318;2023-05-07T08:37:44;23.45;;;14.45;;
78778;SDS011;68121;52.404;5.318;2023-05-07T08:40:10;17.65;;;12.98;;
78778;SDS011;68121;52.404;5.318;2023-05-07T08:42:37;18.92;;;14.20;;
78778;SDS011;68121;52.404;5.318;2023-05-07T08:45:07;17.10;;;12.27;;
78778;SDS011;68121;52.404;5.318;2023-05-07T08:47:47;19.02;;;14.20;;
78778;SDS011;68121;52.404;5.318;2023-05-07T08:50:18;19.38;;;13.82;;
78778;SDS011;68121;52.404;5.318;2023-05-07T08:52:45;18.05;;;12.43;;
78778;SDS011;68121;52.404;5.318;2023-05-07T08:55:12;18.95;;;13.10;;
78778;SDS011;68121;52.404;5.318;2023-05-07T08:57:38;18.60;;;13.98;;
78778;SDS011;68121;52.404;5.318;2023-05-07T09:00:05;17.85;;;13.70;;
78778;SDS011;68121;52.404;5.318;2023-05-07T09:02:33;18.17;;;13.30;;
78778;SDS011;68121;52.404;5.318;2023-05-07T09:05:00;18.13;;;13.10;;
78778;SDS011;68121;52.404;5.318;2023-05-07T09:07:26;16.67;;;13.13;;
78778;SDS011;68121;52.404;5.318;2023-05-07T09:09:52;17.38;;;11.65;;
78778;SDS011;68121;52.404;5.318;2023-05-07T09:12:20;18.48;;;12.38;;
78778;SDS011;68121;52.404;5.318;2023-05-07T09:14:47;15.82;;;11.27;;
78778;SDS011;68121;52.404;5.318;2023-05-07T09:17:13;17.95;;;12.85;;
78778;SDS011;68121;52.404;5.318;2023-05-07T09:19:41;19.25;;;14.27;;
78778;SDS011;68121;52.404;5.318;2023-05-07T09:22:12;19.45;;;13.57;;
78778;SDS011;68121;52.404;5.318;2023-05-07T09:24:39;19.92;;;13.60;;
78778;SDS011;68121;52.404;5.318;2023-05-07T09:27:05;18.55;;;14.27;;
78778;SDS011;68121;52.404;5.318;2023-05-07T09:29:32;16.42;;;12.73;;
78778;SDS011;68121;52.404;5.318;2023-05-07T09:32:01;19.33;;;14.13;;
78778;SDS011;68121;52.404;5.318;2023-05-07T09:34:29;18.17;;;13.32;;
78778;SDS011;68121;52.404;5.318;2023-05-07T09:36:56;20.23;;;13.93;;
78778;SDS011;68121;52.404;5.318;2023-05-07T09:39:26;21.63;;;15.27;;
78778;SDS011;68121;52.404;5.318;2023-05-07T09:42:05;19.65;;;13.98;;
78778;SDS011;68121;52.404;5.318;2023-05-07T09:44:32;19.30;;;14.88;;
78778;SDS011;68121;52.404;5.318;2023-05-07T09:46:59;21.75;;;14.45;;
78778;SDS011;68121;52.404;5.318;2023-05-07T09:49:27;26.17;;;14.63;;
78778;SDS011;68121;52.404;5.318;2023-05-07T09:51:57;19.92;;;14.50;;
78778;SDS011;68121;52.404;5.318;2023-05-07T09:54:26;19.92;;;14.15;;
78778;SDS011;68121;52.404;5.318;2023-05-07T09:56:56;16.38;;;13.98;;
78778;SDS011;68121;52.404;5.318;2023-05-07T09:59:22;21.33;;;14.20;;
78778;SDS011;68121;52.404;5.318;2023-05-07T10:01:49;18.35;;;14.43;;
78778;SDS011;68121;52.404;5.318;2023-05-07T10:04:17;20.63;;;14.88;;
78778;SDS011;68121;52.404;5.318;2023-05-07T10:06:45;21.67;;;15.80;;
78778;SDS011;68121;52.404;5.318;2023-05-07T10:09:12;20.35;;;14.63;;
78778;SDS011;68121;52.404;5.318;2023-05-07T10:11:39;17.75;;;13.65;;
78778;SDS011;68121;52.404;5.318;2023-05-07T10:14:05;18.55;;;12.85;;
78778;SDS011;68121;52.404;5.318;2023-05-07T10:16:33;19.20;;;13.73;;
78778;SDS011;68121;52.404;5.318;2023-05-07T10:19:07;18.67;;;13.50;;
78778;SDS011;68121;52.404;5.318;2023-05-07T10:21:37;18.13;;;12.68;;
78778;SDS011;68121;52.404;5.318;2023-05-07T10:24:05;16.40;;;12.82;;
78778;SDS011;68121;52.404;5.318;2023-05-07T10:26:42;17.17;;;12.90;;
78778;SDS011;68121;52.404;5.318;2023-05-07T10:29:15;14.43;;;9.85;;
78778;SDS011;68121;52.404;5.318;2023-05-07T10:32:09;13.48;;;10.23;;
78778;SDS011;68121;52.404;5.318;2023-05-07T10:37:07;14.32;;;10.38;;
78778;SDS011;68121;52.404;5.318;2023-05-07T10:39:35;13.65;;;9.85;;
78778;SDS011;68121;52.404;5.318;2023-05-07T10:42:09;12.15;;;9.75;;
78778;SDS011;68121;52.404;5.318;2023-05-07T10:44:39;13.45;;;9.88;;
78778;SDS011;68121;52.404;5.318;2023-05-07T10:47:06;11.38;;;8.82;;
78778;SDS011;68121;52.404;5.318;2023-05-07T10:49:35;13.32;;;11.48;;
78778;SDS011;68121;52.404;5.318;2023-05-07T10:52:17;15.75;;;11.90;;
78778;SDS011;68121;52.404;5.318;2023-05-07T10:54:44;15.98;;;11.20;;
78778;SDS011;68121;52.404;5.318;2023-05-07T10:59:56;17.17;;;11.90;;
78778;SDS011;68121;52.404;5.318;2023-05-07T11:02:22;16.95;;;13.30;;
78778;SDS011;68121;52.404;5.318;2023-05-07T11:07:54;18.33;;;11.70;;
78778;SDS011;68121;52.404;5.318;2023-05-07T11:10:21;14.38;;;11.30;;
78778;SDS011;68121;52.404;5.318;2023-05-07T11:12:48;13.20;;;9.90;;
78778;SDS011;68121;52.404;5.318;2023-05-07T11:15:36;14.20;;;10.35;;
78778;SDS011;68121;52.404;5.318;2023-05-07T11:18:04;11.15;;;9.52;;
78778;SDS011;68121;52.404;5.318;2023-05-07T11:28:35;8.77;;;6.47;;
78778;SDS011;68121;52.404;5.318;2023-05-07T11:31:03;7.10;;;5.68;;
78778;SDS011;68121;52.404;5.318;2023-05-07T11:33:29;10.93;;;8.23;;
78778;SDS011;68121;52.404;5.318;2023-05-07T11:35:56;11.23;;;7.45;;
78778;SDS011;68121;52.404;5.318;2023-05-07T11:38:23;12.50;;;8.63;;
78778;SDS011;68121;52.404;5.318;2023-05-07T11:43:26;12.98;;;8.63;;
78778;SDS011;68121;52.404;5.318;2023-05-07T11:45:52;12.23;;;8.45;;
78778;SDS011;68121;52.404;5.318;2023-05-07T11:48:19;10.55;;;7.70;;
78778;SDS011;68121;52.404;5.318;2023-05-07T11:50:53;8.63;;;6.82;;
78778;SDS011;68121;52.404;5.318;2023-05-07T11:53:27;7.97;;;6.88;;
78778;SDS011;68121;52.404;5.318;2023-05-07T11:55:57;9.57;;;8.27;;
78778;SDS011;68121;52.404;5.318;2023-05-07T11:58:24;10.20;;;7.20;;
78778;SDS011;68121;52.404;5.318;2023-05-07T12:00:51;11.93;;;7.55;;
78778;SDS011;68121;52.404;5.318;2023-05-07T12:03:17;9.77;;;7.07;;
78778;SDS011;68121;52.404;5.318;2023-05-07T12:05:44;9.13;;;7.13;;
78778;SDS011;68121;52.404;5.318;2023-05-07T12:08:15;9.48;;;6.95;;
78778;SDS011;68121;52.404;5.318;2023-05-07T12:10:42;10.25;;;7.10;;
78778;SDS011;68121;52.404;5.318;2023-05-07T12:13:15;8.82;;;7.00;;
78778;SDS011;68121;52.404;5.318;2023-05-07T12:15:45;11.35;;;7.10;;
78778;SDS011;68121;52.404;5.318;2023-05-07T12:18:12;7.93;;;6.72;;
78778;SDS011;68121;52.404;5.318;2023-05-07T12:20:39;10.73;;;6.65;;
78778;SDS011;68121;52.404;5.318;2023-05-07T12:23:05;10.27;;;5.85;;
78778;SDS011;68121;52.404;5.318;2023-05-07T12:25:35;7.32;;;5.53;;
78778;SDS011;68121;52.404;5.318;2023-05-07T12:28:02;8.52;;;5.75;;
78778;SDS011;68121;52.404;5.318;2023-05-07T12:30:36;6.13;;;5.13;;
78778;SDS011;68121;52.404;5.318;2023-05-07T12:33:03;9.40;;;5.43;;
78778;SDS011;68121;52.404;5.318;2023-05-07T12:35:30;8.73;;;6.43;;
78778;SDS011;68121;52.404;5.318;2023-05-07T12:37:58;9.07;;;6.15;;
78778;SDS011;68121;52.404;5.318;2023-05-07T12:40:38;7.20;;;5.22;;
78778;SDS011;68121;52.404;5.318;2023-05-07T12:43:14;9.25;;;6.30;;
78778;SDS011;68121;52.404;5.318;2023-05-07T12:45:51;7.85;;;5.78;;
78778;SDS011;68121;52.404;5.318;2023-05-07T12:48:20;8.25;;;5.78;;
78778;SDS011;68121;52.404;5.318;2023-05-07T12:50:50;10.23;;;6.40;;
78778;SDS011;68121;52.404;5.318;2023-05-07T12:53:19;8.55;;;6.70;;
78778;SDS011;68121;52.404;5.318;2023-05-07T12:55:47;9.45;;;6.72;;
78778;SDS011;68121;52.404;5.318;2023-05-07T12:58:18;8.38;;;5.97;;
78778;SDS011;68121;52.404;5.318;2023-05-07T13:00:55;7.65;;;5.80;;
78778;SDS011;68121;52.404;5.318;2023-05-07T13:03:27;8.43;;;6.35;;
78778;SDS011;68121;52.404;5.318;2023-05-07T13:08:25;8.20;;;5.70;;
78778;SDS011;68121;52.404;5.318;2023-05-07T13:10:52;8.73;;;5.65;;
78778;SDS011;68121;52.404;5.318;2023-05-07T13:13:19;8.32;;;5.45;;
78778;SDS011;68121;52.404;5.318;2023-05-07T13:15:46;5.20;;;4.28;;
78778;SDS011;68121;52.404;5.318;2023-05-07T13:18:12;5.07;;;3.90;;
78778;SDS011;68121;52.404;5.318;2023-05-07T13:20:38;8.93;;;4.53;;
78778;SDS011;68121;52.404;5.318;2023-05-07T13:23:04;4.95;;;3.95;;
78778;SDS011;68121;52.404;5.318;2023-05-07T13:25:33;8.68;;;3.95;;
78778;SDS011;68121;52.404;5.318;2023-05-07T13:27:59;5.85;;;3.80;;
78778;SDS011;68121;52.404;5.318;2023-05-07T13:30:25;5.32;;;3.20;;
78778;SDS011;68121;52.404;5.318;2023-05-07T13:32:53;4.88;;;2.20;;
78778;SDS011;68121;52.404;5.318;2023-05-07T13:35:21;3.33;;;2.08;;
78778;SDS011;68121;52.404;5.318;2023-05-07T13:37:47;5.20;;;1.60;;
78778;SDS011;68121;52.404;5.318;2023-05-07T13:40:14;3.05;;;1.70;;
78778;SDS011;68121;52.404;5.318;2023-05-07T13:42:40;5.53;;;2.55;;
78778;SDS011;68121;52.404;5.318;2023-05-07T13:45:08;3.40;;;2.55;;
78778;SDS011;68121;52.404;5.318;2023-05-07T13:47:34;5.93;;;3.40;;
78778;SDS011;68121;52.404;5.318;2023-05-07T13:50:00;6.43;;;3.92;;
78778;SDS011;68121;52.404;5.318;2023-05-07T13:52:26;5.70;;;4.95;;
78778;SDS011;68121;52.404;5.318;2023-05-07T13:54:52;10.05;;;4.60;;
78778;SDS011;68121;52.404;5.318;2023-05-07T13:57:20;6.70;;;5.35;;
78778;SDS011;68121;52.404;5.318;2023-05-07T13:59:46;7.45;;;6.18;;
78778;SDS011;68121;52.404;5.318;2023-05-07T14:02:12;10.13;;;7.45;;
78778;SDS011;68121;52.404;5.318;2023-05-07T14:04:38;9.93;;;5.38;;
78778;SDS011;68121;52.404;5.318;2023-05-07T14:07:04;9.35;;;6.30;;
78778;SDS011;68121;52.404;5.318;2023-05-07T14:09:30;6.88;;;5.03;;
78778;SDS011;68121;52.404;5.318;2023-05-07T14:11:56;24.88;;;10.60;;
78778;SDS011;68121;52.404;5.318;2023-05-07T14:14:22;31.80;;;17.23;;
78778;SDS011;68121;52.404;5.318;2023-05-07T14:16:48;9.68;;;5.53;;
78778;SDS011;68121;52.404;5.318;2023-05-07T14:19:15;20.00;;;11.82;;
78778;SDS011;68121;52.404;5.318;2023-05-07T14:21:41;28.65;;;17.40;;
78778;SDS011;68121;52.404;5.318;2023-05-07T14:24:07;23.83;;;15.02;;
78778;SDS011;68121;52.404;5.318;2023-05-07T14:26:34;10.68;;;6.80;;
78778;SDS011;68121;52.404;5.318;2023-05-07T14:29:00;9.13;;;6.45;;
78778;SDS011;68121;52.404;5.318;2023-05-07T14:31:26;11.27;;;7.80;;
78778;SDS011;68121;52.404;5.318;2023-05-07T14:33:52;9.90;;;7.43;;
78778;SDS011;68121;52.404;5.318;2023-05-07T14:36:19;9.35;;;6.57;;
78778;SDS011;68121;52.404;5.318;2023-05-07T14:38:49;10.43;;;7.28;;
78778;SDS011;68121;52.404;5.318;2023-05-07T14:41:16;14.95;;;8.48;;
78778;SDS011;68121;52.404;5.318;2023-05-07T14:43:42;10.85;;;8.23;;
78778;SDS011;68121;52.404;5.318;2023-05-07T14:46:08;10.18;;;7.55;;
78778;SDS011;68121;52.404;5.318;2023-05-07T14:48:34;19.60;;;12.45;;
78778;SDS011;68121;52.404;5.318;2023-05-07T14:51:02;11.27;;;7.70;;
78778;SDS011;68121;52.404;5.318;2023-05-07T14:53:30;11.02;;;7.68;;
78778;SDS011;68121;52.404;5.318;2023-05-07T14:55:56;11.50;;;7.13;;